createdAt,value
2022-09-17T00:02:09.292Z,22.80
2022-09-17T00:04:39.650Z,22.80
2022-09-17T00:07:09.995Z,22.80
2022-09-17T00:09:40.916Z,22.80
2022-09-17T00:12:11.257Z,22.80
2022-09-17T00:14:42.883Z,22.80
2022-09-17T00:17:13.196Z,22.80
2022-09-17T00:19:43.485Z,22.90
2022-09-17T00:22:13.897Z,22.90
2022-09-17T00:24:44.313Z,22.90
2022-09-17T00:27:14.742Z,22.90
2022-09-17T00:29:45.149Z,22.90
2022-09-17T00:32:15.534Z,22.90
2022-09-17T00:34:46.349Z,22.90
2022-09-17T00:37:16.798Z,22.90
2022-09-17T00:39:47.251Z,22.90
2022-09-17T00:42:18.515Z,22.90
2022-09-17T00:44:59.009Z,23.00
2022-09-17T00:47:47.295Z,23.00
2022-09-17T00:50:34.897Z,23.00
2022-09-17T00:53:10.935Z,23.00
2022-09-17T00:55:48.387Z,23.00
2022-09-17T00:58:21.363Z,23.00
2022-09-17T01:00:52.141Z,23.00
2022-09-17T01:03:24.660Z,23.00
2022-09-17T01:06:24.770Z,23.00
2022-09-17T01:09:25.992Z,23.00
2022-09-17T01:12:22.273Z,23.00
2022-09-17T01:15:24.662Z,23.00
2022-09-17T01:18:13.860Z,23.10
2022-09-17T01:21:13.120Z,23.10
2022-09-17T01:24:14.871Z,23.20
2022-09-17T01:27:24.421Z,23.20
2022-09-17T01:30:22.437Z,23.20
2022-09-17T01:33:05.318Z,23.20
2022-09-17T01:36:08.974Z,23.20
2022-09-17T01:39:18.230Z,23.30
2022-09-17T01:41:58.667Z,23.30
2022-09-17T01:44:39.848Z,23.40
2022-09-17T01:47:21.212Z,23.40
2022-09-17T01:49:56.652Z,23.50
2022-09-17T01:52:29.093Z,23.50
2022-09-17T01:55:04.633Z,23.60
2022-09-17T01:57:45.199Z,23.60
2022-09-17T02:00:19.579Z,23.70
2022-09-17T02:03:15.661Z,23.70
2022-09-17T02:05:58.461Z,23.80
2022-09-17T02:08:34.745Z,23.80
2022-09-17T02:11:15.853Z,23.80
2022-09-17T02:14:01.325Z,23.80
2022-09-17T02:16:36.873Z,23.80
2022-09-17T02:19:26.972Z,23.80
2022-09-17T02:22:25.603Z,23.80
2022-09-17T02:25:26.935Z,23.80
2022-09-17T02:28:10.943Z,24.00
2022-09-17T02:30:41.961Z,24.00
2022-09-17T02:33:17.930Z,24.10
2022-09-17T02:35:49.392Z,24.10
2022-09-17T02:38:33.034Z,24.20
2022-09-17T02:41:25.971Z,24.20
2022-09-17T02:44:28.645Z,24.30
2022-09-17T02:47:30.788Z,24.40
2022-09-17T02:50:38.986Z,24.50
2022-09-17T02:53:40.831Z,24.60
2022-09-17T02:56:49.431Z,24.60
2022-09-17T02:59:32.516Z,24.70
2022-09-17T03:02:13.122Z,24.70
2022-09-17T03:04:44.058Z,24.80
2022-09-17T03:07:15.967Z,24.90
2022-09-17T03:09:46.391Z,24.90
2022-09-17T03:12:17.869Z,24.90
2022-09-17T03:14:48.164Z,25.00
2022-09-17T03:17:18.518Z,25.10
2022-09-17T03:19:48.869Z,25.10
2022-09-17T03:22:19.231Z,25.10
2022-09-17T03:24:49.766Z,25.10
2022-09-17T03:27:20.069Z,25.10
2022-09-17T03:29:50.551Z,25.00
2022-09-17T03:32:20.926Z,25.10
2022-09-17T03:34:51.378Z,25.10
2022-09-17T03:37:21.688Z,25.10
2022-09-17T03:39:52.051Z,25.10
2022-09-17T03:42:22.416Z,25.10
2022-09-17T03:44:52.795Z,25.10
2022-09-17T03:47:23.146Z,25.10
2022-09-17T03:49:54.723Z,25.20
2022-09-17T03:52:25.408Z,25.10
2022-09-17T03:54:55.954Z,25.10
2022-09-17T03:57:26.330Z,25.10
2022-09-17T03:59:56.863Z,25.20
2022-09-17T04:02:27.281Z,25.20
2022-09-17T04:04:57.738Z,25.30
2022-09-17T04:07:28.036Z,25.30
2022-09-17T04:09:58.437Z,25.50
2022-09-17T04:12:28.964Z,25.60
2022-09-17T04:14:59.415Z,25.70
2022-09-17T04:17:30.731Z,25.70
2022-09-17T04:20:01.667Z,25.80
2022-09-17T04:22:32.018Z,25.90
2022-09-17T04:25:02.359Z,26.00
2022-09-17T04:27:32.880Z,26.10
2022-09-17T04:30:04.060Z,26.20
2022-09-17T04:32:34.500Z,26.20
2022-09-17T04:35:04.968Z,26.30
2022-09-17T04:37:36.203Z,26.40
2022-09-17T04:40:08.105Z,26.50
2022-09-17T04:42:38.648Z,26.60
2022-09-17T04:45:09.440Z,26.70
2022-09-17T04:47:42.625Z,26.80
2022-09-17T04:50:13.249Z,26.90
2022-09-17T04:52:47.615Z,27.00
2022-09-17T04:55:19.465Z,27.00
2022-09-17T04:57:52.627Z,26.90
2022-09-17T05:00:25.443Z,26.80
2022-09-17T05:02:57.839Z,26.80
2022-09-17T05:05:28.467Z,26.70
2022-09-17T05:07:58.734Z,26.70
2022-09-17T05:10:29.195Z,26.70
2022-09-17T05:12:59.938Z,26.80
2022-09-17T05:15:33.427Z,26.70
2022-09-17T05:18:03.743Z,26.70
2022-09-17T05:20:34.317Z,26.70
2022-09-17T05:23:04.978Z,26.60
2022-09-17T05:25:35.486Z,26.60
2022-09-17T05:28:05.885Z,26.60
2022-09-17T05:30:36.727Z,26.50
2022-09-17T05:33:09.885Z,26.40
2022-09-17T05:35:40.351Z,26.30
2022-09-17T05:38:10.715Z,26.20
2022-09-17T05:40:42.523Z,26.00
2022-09-17T05:43:13.221Z,25.80
2022-09-17T05:45:43.959Z,24.60
2022-09-17T05:48:17.353Z,25.70
2022-09-17T05:50:47.788Z,25.70
2022-09-17T05:53:18.091Z,25.70
2022-09-17T05:55:48.392Z,25.70
2022-09-17T05:58:21.630Z,25.60
2022-09-17T06:00:52.611Z,25.50
2022-09-17T06:03:24.716Z,25.50
2022-09-17T06:05:58.493Z,25.30
2022-09-17T06:08:30.828Z,25.20
2022-09-17T06:11:02.636Z,25.10
2022-09-17T06:13:33.124Z,25.00
2022-09-17T06:16:04.395Z,24.90
2022-09-17T06:18:35.843Z,24.70
2022-09-17T06:21:07.757Z,24.70
2022-09-17T06:23:39.293Z,24.60
2022-09-17T06:26:10.065Z,24.60
2022-09-17T06:28:41.865Z,24.50
2022-09-17T06:31:14.522Z,24.50
2022-09-17T06:33:44.836Z,24.60
2022-09-17T06:36:15.644Z,24.70
2022-09-17T06:38:46.265Z,24.50
2022-09-17T06:41:19.009Z,24.50
2022-09-17T06:43:49.399Z,24.50
2022-09-17T06:46:19.925Z,24.60
2022-09-17T06:48:50.585Z,24.60
2022-09-17T06:51:21.031Z,24.60
2022-09-17T06:53:51.679Z,24.60
2022-09-17T06:56:21.962Z,24.60
2022-09-17T06:58:52.311Z,24.60
2022-09-17T07:01:22.675Z,24.60
2022-09-17T07:03:53.503Z,24.70
2022-09-17T07:06:24.082Z,24.70
2022-09-17T07:08:56.141Z,24.60
2022-09-17T07:11:26.781Z,24.70
2022-09-17T07:13:58.421Z,24.70
2022-09-17T07:16:29.126Z,24.70
2022-09-17T07:18:59.553Z,24.60
2022-09-17T07:21:29.907Z,24.60
2022-09-17T07:24:05.481Z,24.60
2022-09-17T07:26:36.976Z,24.60
2022-09-17T07:29:08.079Z,24.60
2022-09-17T07:31:39.517Z,24.70
2022-09-17T07:34:10.205Z,24.70
2022-09-17T07:36:40.476Z,24.70
2022-09-17T07:39:11.827Z,24.80
2022-09-17T07:41:43.760Z,24.90
2022-09-17T07:44:14.144Z,25.00
2022-09-17T07:46:44.509Z,25.10
2022-09-17T07:49:14.864Z,25.20
2022-09-17T08:05:41.893Z,24.40
2022-09-17T08:08:12.244Z,24.40
2022-09-17T08:10:42.590Z,24.80
2022-09-17T08:13:12.929Z,25.30
2022-09-17T08:15:43.282Z,25.60
2022-09-17T08:18:13.794Z,25.80
2022-09-17T08:20:44.063Z,26.10
2022-09-17T08:23:14.544Z,26.20
2022-09-17T08:25:44.868Z,26.30
2022-09-17T08:28:15.144Z,26.30
2022-09-17T08:30:45.390Z,26.30
2022-09-17T08:33:15.684Z,26.40
2022-09-17T08:35:46.605Z,26.40
2022-09-17T08:38:16.974Z,26.60
2022-09-17T08:40:59.186Z,26.60
2022-09-17T08:43:31.401Z,26.80
2022-09-17T08:46:02.406Z,26.80
2022-09-17T08:48:42.950Z,26.80
2022-09-17T08:51:42.130Z,26.80
2022-09-17T08:54:37.406Z,26.80
2022-09-17T08:57:46.002Z,26.70
2022-09-17T09:00:20.966Z,26.60
2022-09-17T09:03:21.009Z,26.80
2022-09-17T09:05:55.052Z,26.70
2022-09-17T09:08:50.755Z,26.80
2022-09-17T09:18:55.597Z,26.10
2022-09-17T09:21:42.025Z,25.70
2022-09-17T09:24:35.758Z,25.90
2022-09-17T09:27:35.285Z,26.10
2022-09-17T09:30:15.540Z,26.30
2022-09-17T09:33:02.682Z,26.60
2022-09-17T09:35:36.988Z,26.70
2022-09-17T09:38:26.263Z,26.90
2022-09-17T09:41:19.844Z,26.90
2022-09-17T09:44:04.702Z,27.00
2022-09-17T09:47:15.529Z,27.10
2022-09-17T09:50:07.777Z,27.20
2022-09-17T09:53:01.694Z,27.20
2022-09-17T09:55:52.705Z,27.00
2022-09-17T09:58:39.414Z,27.10
2022-09-17T10:01:25.282Z,27.10
2022-09-17T10:03:57.906Z,27.20
2022-09-17T10:06:32.430Z,27.20
2022-09-17T10:09:20.124Z,27.30
2022-09-17T10:12:18.618Z,27.40
2022-09-17T10:14:50.238Z,27.50
2022-09-17T10:17:26.694Z,27.60
2022-09-17T10:20:22.942Z,27.60
2022-09-17T10:22:54.501Z,27.60
2022-09-17T10:25:34.871Z,27.60
2022-09-17T10:28:08.218Z,27.50
2022-09-17T10:30:38.872Z,27.30
2022-09-17T10:33:31.835Z,27.20
2022-09-17T10:36:09.011Z,27.10
2022-09-17T10:38:43.413Z,27.10
2022-09-17T10:41:24.912Z,26.90
2022-09-17T10:43:55.534Z,26.90
2022-09-17T10:46:33.424Z,27.00
2022-09-17T10:49:27.455Z,27.00
2022-09-17T10:52:10.030Z,26.90
2022-09-17T10:55:19.205Z,26.90
2022-09-17T10:58:14.774Z,26.90
2022-09-17T11:01:20.079Z,26.90
2022-09-17T11:04:21.065Z,26.90
2022-09-17T11:07:20.854Z,26.90
2022-09-17T11:10:10.206Z,26.90
2022-09-17T11:12:58.573Z,26.90
2022-09-17T11:15:43.297Z,26.90
2022-09-17T11:18:49.343Z,26.70
2022-09-17T11:21:39.111Z,26.70
2022-09-17T11:24:36.449Z,26.60
2022-09-17T11:27:40.295Z,26.50
2022-09-17T11:30:22.310Z,26.50
2022-09-17T11:33:22.031Z,26.50
2022-09-17T11:35:58.621Z,26.40
2022-09-17T11:38:41.709Z,26.40
2022-09-17T11:41:20.936Z,26.30
2022-09-17T11:44:18.364Z,26.30
2022-09-17T11:47:20.675Z,26.30
2022-09-17T11:50:01.051Z,26.20
2022-09-17T11:52:43.807Z,26.10
2022-09-17T11:55:52.751Z,26.10
2022-09-17T11:58:46.702Z,26.00
2022-09-17T12:01:29.987Z,25.90
2022-09-17T12:04:25.624Z,25.90
2022-09-17T12:07:21.147Z,25.80
2022-09-17T12:09:57.909Z,25.80
2022-09-17T12:12:48.960Z,25.70
2022-09-17T12:15:28.188Z,25.70
2022-09-17T12:18:37.242Z,25.60
2022-09-17T12:21:12.168Z,25.50
2022-09-17T12:23:51.622Z,25.50
2022-09-17T12:26:33.140Z,25.40
2022-09-17T12:29:39.288Z,25.40
2022-09-17T12:32:43.144Z,25.40
2022-09-17T12:36:03.449Z,25.40
2022-09-17T12:39:03.671Z,25.30
2022-09-17T12:41:56.847Z,25.30
2022-09-17T12:44:51.762Z,25.30
2022-09-17T12:47:54.286Z,25.20
2022-09-17T12:50:54.266Z,25.20
2022-09-17T12:53:54.502Z,25.20
2022-09-17T12:56:48.894Z,25.30
2022-09-17T12:59:22.789Z,25.20
2022-09-17T13:02:03.064Z,25.20
2022-09-17T13:05:03.458Z,25.20
2022-09-17T13:07:55.510Z,25.10
2022-09-17T13:10:43.919Z,25.10
2022-09-17T13:13:39.251Z,25.10
2022-09-17T13:16:48.699Z,25.00
2022-09-17T13:19:44.603Z,25.00
2022-09-17T13:22:23.316Z,25.00
2022-09-17T13:25:10.146Z,25.00
2022-09-17T13:27:41.452Z,25.00
2022-09-17T13:30:13.746Z,25.00
2022-09-17T13:32:46.962Z,25.00
2022-09-17T13:35:52.219Z,25.00
2022-09-17T13:38:24.833Z,25.00
2022-09-17T13:41:15.743Z,25.00
2022-09-17T13:43:51.039Z,24.90
2022-09-17T13:46:26.273Z,24.90
2022-09-17T13:49:01.103Z,24.80
2022-09-17T13:51:49.143Z,24.80
2022-09-17T13:54:21.308Z,24.80
2022-09-17T13:57:07.165Z,24.80
2022-09-17T13:59:39.032Z,24.80
2022-09-17T14:02:35.263Z,24.80
2022-09-17T14:05:37.775Z,24.70
2022-09-17T14:08:29.866Z,24.70
2022-09-17T14:11:03.254Z,24.70
2022-09-17T14:13:49.009Z,24.70
2022-09-17T14:16:48.520Z,24.70
2022-09-17T14:19:42.049Z,24.70
2022-09-17T14:22:18.247Z,24.60
2022-09-17T14:24:54.544Z,24.60
2022-09-17T14:27:53.197Z,24.60
2022-09-17T14:30:25.378Z,24.70
2022-09-17T14:33:28.345Z,24.60
2022-09-17T14:36:11.279Z,24.40
2022-09-17T14:38:48.289Z,24.60
2022-09-17T14:41:27.608Z,24.60
2022-09-17T14:44:06.426Z,24.60
2022-09-17T14:46:49.409Z,24.60
2022-09-17T14:49:33.247Z,24.60
2022-09-17T14:52:04.731Z,24.50
2022-09-17T14:54:36.652Z,24.60
2022-09-17T14:57:30.233Z,24.60
2022-09-17T15:00:02.446Z,24.60
2022-09-17T15:02:46.884Z,24.60
2022-09-17T15:05:35.945Z,24.60
2022-09-17T15:08:23.369Z,24.60
2022-09-17T15:11:10.059Z,24.60
2022-09-17T15:13:46.763Z,24.60
2022-09-17T15:16:24.679Z,24.60
2022-09-17T15:18:59.192Z,24.50
2022-09-17T15:21:42.250Z,24.50
2022-09-17T15:24:41.518Z,24.50
2022-09-17T15:27:25.904Z,24.50
2022-09-17T15:30:08.333Z,24.40
2022-09-17T15:32:40.689Z,24.50
2022-09-17T15:35:32.309Z,24.50
2022-09-17T15:38:24.200Z,24.40
2022-09-17T15:40:55.641Z,24.50
2022-09-17T15:43:36.513Z,24.40
2022-09-17T15:46:28.817Z,24.40
2022-09-17T15:49:02.253Z,24.40
2022-09-17T15:51:37.959Z,24.40
2022-09-17T15:54:12.230Z,24.40
2022-09-17T15:56:45.758Z,24.40
2022-09-17T15:59:29.871Z,24.40
2022-09-17T16:02:03.353Z,24.40
2022-09-17T16:04:35.890Z,24.40
2022-09-17T16:07:26.537Z,24.40
2022-09-17T16:09:58.690Z,24.30
2022-09-17T16:12:31.240Z,24.40
2022-09-17T16:15:04.209Z,24.30
2022-09-17T16:17:47.923Z,24.30
2022-09-17T16:20:22.213Z,24.30
2022-09-17T16:22:55.137Z,24.30
2022-09-17T16:25:29.535Z,24.30
2022-09-17T16:28:03.620Z,24.30
2022-09-17T16:30:34.371Z,24.30
2022-09-17T16:33:06.108Z,24.20
2022-09-17T16:35:36.459Z,24.20
2022-09-17T16:38:07.144Z,24.20
2022-09-17T16:40:38.030Z,24.30
2022-09-17T16:43:08.374Z,24.20
2022-09-17T16:45:38.933Z,24.20
2022-09-17T16:48:09.980Z,24.20
2022-09-17T16:50:43.517Z,24.20
2022-09-17T16:53:13.890Z,24.20
2022-09-17T16:55:44.154Z,24.20
2022-09-17T16:58:14.627Z,24.20
2022-09-17T17:00:46.944Z,24.20
2022-09-17T17:03:18.442Z,24.20
2022-09-17T17:05:48.718Z,24.20
2022-09-17T17:08:19.074Z,24.20
2022-09-17T17:10:52.982Z,24.20
2022-09-17T17:13:23.804Z,24.20
2022-09-17T17:15:54.197Z,24.20
2022-09-17T17:18:25.096Z,24.20
2022-09-17T17:20:55.432Z,24.20
2022-09-17T17:23:25.718Z,24.20
2022-09-17T17:25:56.442Z,24.10
2022-09-17T17:28:26.818Z,24.10
2022-09-17T17:30:57.212Z,24.10
2022-09-17T17:33:27.682Z,24.10
2022-09-17T17:35:58.141Z,24.10
2022-09-17T17:38:29.094Z,24.10
2022-09-17T17:41:14.691Z,24.10
2022-09-17T17:43:45.244Z,24.20
2022-09-17T17:46:16.974Z,24.10
2022-09-17T17:48:48.157Z,24.10
2022-09-17T17:51:20.730Z,24.10
2022-09-17T17:53:51.024Z,24.10
2022-09-17T17:56:22.677Z,24.10
2022-09-17T17:58:58.667Z,24.10
2022-09-17T18:01:32.105Z,24.10
2022-09-17T18:04:05.967Z,24.10
2022-09-17T18:06:36.491Z,24.10
2022-09-17T18:09:07.857Z,24.10
2022-09-17T18:11:39.248Z,24.10
2022-09-17T18:14:09.579Z,24.10
2022-09-17T18:16:40.743Z,24.10
2022-09-17T18:19:13.305Z,24.10
2022-09-17T18:21:43.756Z,24.10
2022-09-17T18:24:14.025Z,24.10
2022-09-17T18:26:46.263Z,24.10
2022-09-17T18:29:18.110Z,24.10
2022-09-17T18:31:48.532Z,24.10
2022-09-17T18:34:19.524Z,24.10
2022-09-17T18:36:51.358Z,24.00
2022-09-17T18:42:13.596Z,24.00
2022-09-17T18:44:43.971Z,24.10
2022-09-17T18:47:14.339Z,24.10
2022-09-17T18:49:44.650Z,24.10
2022-09-17T18:52:14.960Z,24.10
2022-09-17T18:54:48.056Z,24.10
2022-09-17T18:57:18.449Z,24.00
2022-09-17T18:59:48.741Z,24.00
2022-09-17T19:02:19.053Z,24.10
2022-09-17T19:04:49.392Z,24.00
2022-09-17T19:07:19.791Z,24.00
2022-09-17T19:09:50.312Z,24.00
2022-09-17T19:12:20.652Z,24.00
2022-09-17T19:14:50.998Z,23.90
2022-09-17T19:17:21.375Z,24.00
2022-09-17T19:19:52.319Z,23.90
2022-09-17T19:22:22.662Z,23.90
2022-09-17T19:24:52.879Z,23.90
2022-09-17T19:27:23.105Z,23.90
2022-09-17T19:29:53.582Z,23.80
2022-09-17T19:32:23.814Z,23.80
2022-09-17T19:34:54.766Z,23.90
2022-09-17T19:37:25.143Z,23.80
2022-09-17T19:39:55.604Z,23.90
2022-09-17T19:42:25.956Z,23.80
2022-09-17T19:44:56.250Z,23.80
2022-09-17T19:47:26.491Z,23.80
2022-09-17T19:49:58.154Z,23.80
2022-09-17T19:52:28.502Z,23.80
2022-09-17T19:54:58.852Z,23.80
2022-09-17T19:57:29.082Z,23.80
2022-09-17T20:00:00.032Z,23.80
2022-09-17T20:02:31.158Z,23.80
2022-09-17T20:05:01.782Z,23.80
2022-09-17T20:07:32.245Z,23.80
2022-09-17T20:10:02.573Z,23.80
2022-09-17T20:12:32.821Z,23.80
2022-09-17T20:15:03.103Z,23.80
2022-09-17T20:17:33.578Z,23.80
2022-09-17T20:20:03.895Z,23.80
2022-09-17T20:22:34.242Z,23.70
2022-09-17T20:25:04.666Z,23.80
2022-09-17T20:27:35.461Z,23.80
2022-09-17T20:30:05.866Z,23.80
2022-09-17T20:32:36.216Z,23.80
2022-09-17T20:35:06.700Z,23.80
2022-09-17T20:38:32.938Z,23.80
2022-09-17T20:40:27.395Z,23.80
2022-09-17T20:42:57.777Z,23.80
2022-09-17T20:45:28.136Z,23.80
2022-09-17T20:47:58.543Z,23.80
2022-09-17T20:50:28.882Z,23.80
2022-09-17T20:52:59.169Z,23.80
2022-09-17T20:55:29.774Z,23.80
2022-09-17T20:57:59.979Z,23.80
2022-09-17T21:00:31.424Z,23.80
2022-09-17T21:03:01.838Z,23.80
2022-09-17T21:05:32.145Z,23.80
2022-09-17T21:08:02.399Z,23.80
2022-09-17T21:10:32.624Z,23.80
2022-09-17T21:13:02.958Z,23.80
2022-09-17T21:15:33.270Z,23.80
2022-09-17T21:18:03.580Z,23.80
2022-09-17T21:20:34.278Z,23.80
2022-09-17T21:23:04.762Z,23.80
2022-09-17T21:25:35.150Z,23.80
2022-09-17T21:28:05.610Z,23.90
2022-09-17T21:30:36.056Z,23.90
2022-09-17T21:33:06.414Z,23.90
2022-09-17T21:35:36.781Z,23.90
2022-09-17T21:38:07.622Z,23.90
2022-09-17T21:40:38.049Z,23.80
2022-09-17T21:43:10.879Z,23.80
2022-09-17T21:45:41.148Z,23.80
2022-09-17T21:48:11.345Z,23.80
2022-09-17T21:50:41.891Z,23.80
2022-09-17T21:53:12.151Z,23.80
2022-09-17T21:55:42.476Z,23.80
2022-09-17T21:58:12.967Z,23.70
2022-09-17T22:00:44.926Z,23.80
2022-09-17T22:03:15.403Z,23.70
2022-09-17T22:05:45.683Z,23.70
2022-09-17T22:08:15.984Z,23.70
2022-09-17T22:10:46.299Z,23.60
2022-09-17T22:13:16.632Z,23.60
2022-09-17T22:15:46.914Z,23.70
2022-09-17T22:18:17.228Z,23.60
2022-09-17T22:20:47.484Z,23.60
2022-09-17T22:23:17.824Z,23.60
2022-09-17T22:25:48.234Z,23.60
2022-09-17T22:28:21.544Z,23.60
2022-09-17T22:30:52.092Z,23.60
2022-09-17T22:33:22.518Z,23.60
2022-09-17T22:35:52.803Z,23.70
2022-09-17T22:38:23.620Z,23.60
2022-09-17T22:40:53.913Z,23.70
2022-09-17T22:43:24.256Z,23.70
2022-09-17T22:45:54.521Z,23.60
2022-09-17T22:48:24.980Z,23.50
2022-09-17T22:50:55.706Z,23.50
2022-09-17T22:53:26.014Z,23.50
2022-09-17T22:55:59.666Z,23.40
2022-09-17T22:58:30.550Z,23.50
2022-09-17T23:01:01.202Z,23.50
2022-09-17T23:03:32.648Z,23.50
2022-09-17T23:06:05.790Z,23.50
2022-09-17T23:08:37.064Z,23.50
2022-09-17T23:11:09.841Z,23.50
2022-09-17T23:13:40.344Z,23.50
2022-09-17T23:16:12.267Z,23.50
2022-09-17T23:18:42.740Z,23.50
2022-09-17T23:21:18.794Z,23.50
2022-09-17T23:23:51.352Z,23.40
2022-09-17T23:26:24.974Z,23.40
2022-09-17T23:28:55.899Z,23.50
2022-09-17T23:31:29.907Z,23.50
2022-09-17T23:34:01.512Z,23.50
2022-09-17T23:36:35.579Z,23.50
2022-09-17T23:39:08.924Z,23.50
2022-09-17T23:41:42.556Z,23.50
2022-09-17T23:44:16.009Z,23.50
2022-09-17T23:46:47.973Z,23.50
2022-09-17T23:49:18.906Z,23.50
2022-09-17T23:51:49.221Z,23.50
2022-09-17T23:54:19.757Z,23.50
2022-09-17T23:56:50.129Z,23.50
2022-09-17T23:59:20.391Z,23.50
